sensor_id;sensor_type;location;lat;lon;timestamp;temperature;humidity
23562;DHT22;11959;49.418;8.728;2023-08-06T00:00:16;16.20;99.90
23562;DHT22;11959;49.418;8.728;2023-08-06T00:02:41;16.20;99.90
23562;DHT22;11959;49.418;8.728;2023-08-06T00:05:07;16.10;99.90
23562;DHT22;11959;49.418;8.728;2023-08-06T00:07:33;16.10;99.90
23562;DHT22;11959;49.418;8.728;2023-08-06T00:09:59;16.10;99.90
23562;DHT22;11959;49.418;8.728;2023-08-06T00:12:24;16.10;99.90
23562;DHT22;11959;49.418;8.728;2023-08-06T00:14:51;16.10;99.90
23562;DHT22;11959;49.418;8.728;2023-08-06T00:17:17;16.10;99.90
23562;DHT22;11959;49.418;8.728;2023-08-06T00:19:43;16.00;99.90
23562;DHT22;11959;49.418;8.728;2023-08-06T00:22:08;16.00;99.90
23562;DHT22;11959;49.418;8.728;2023-08-06T00:24:34;16.00;99.90
23562;DHT22;11959;49.418;8.728;2023-08-06T00:27:01;16.10;99.90
23562;DHT22;11959;49.418;8.728;2023-08-06T00:29:26;16.10;99.90
23562;DHT22;11959;49.418;8.728;2023-08-06T00:31:52;16.10;99.90
23562;DHT22;11959;49.418;8.728;2023-08-06T00:34:18;16.10;99.90
23562;DHT22;11959;49.418;8.728;2023-08-06T00:36:43;16.10;99.90
23562;DHT22;11959;49.418;8.728;2023-08-06T00:39:09;16.10;99.90
23562;DHT22;11959;49.418;8.728;2023-08-06T00:41:34;16.10;99.90
23562;DHT22;11959;49.418;8.728;2023-08-06T00:44:00;16.20;99.90
23562;DHT22;11959;49.418;8.728;2023-08-06T00:46:26;16.20;99.90
23562;DHT22;11959;49.418;8.728;2023-08-06T00:48:52;16.10;99.90
23562;DHT22;11959;49.418;8.728;2023-08-06T00:51:19;16.20;99.90
23562;DHT22;11959;49.418;8.728;2023-08-06T00:53:44;16.10;99.90
23562;DHT22;11959;49.418;8.728;2023-08-06T00:56:10;16.20;99.90
23562;DHT22;11959;49.418;8.728;2023-08-06T00:58:37;16.20;99.90
23562;DHT22;11959;49.418;8.728;2023-08-06T01:01:03;16.20;99.90
23562;DHT22;11959;49.418;8.728;2023-08-06T01:03:29;16.20;99.90
23562;DHT22;11959;49.418;8.728;2023-08-06T01:05:55;16.20;99.90
23562;DHT22;11959;49.418;8.728;2023-08-06T01:08:49;16.20;99.90
23562;DHT22;11959;49.418;8.728;2023-08-06T01:11:32;16.20;99.90
23562;DHT22;11959;49.418;8.728;2023-08-06T01:14:05;16.20;99.90
23562;DHT22;11959;49.418;8.728;2023-08-06T01:16:32;16.20;99.90
23562;DHT22;11959;49.418;8.728;2023-08-06T01:18:59;16.20;99.90
23562;DHT22;11959;49.418;8.728;2023-08-06T01:21:24;16.20;99.90
23562;DHT22;11959;49.418;8.728;2023-08-06T01:23:50;16.20;99.90
23562;DHT22;11959;49.418;8.728;2023-08-06T01:26:33;16.20;99.90
23562;DHT22;11959;49.418;8.728;2023-08-06T01:29:22;16.20;99.90
23562;DHT22;11959;49.418;8.728;2023-08-06T01:31:51;16.20;99.90
23562;DHT22;11959;49.418;8.728;2023-08-06T01:34:21;16.20;99.90
23562;DHT22;11959;49.418;8.728;2023-08-06T01:36:47;16.20;99.90
23562;DHT22;11959;49.418;8.728;2023-08-06T01:39:13;16.20;99.90
23562;DHT22;11959;49.418;8.728;2023-08-06T01:41:39;16.10;99.90
23562;DHT22;11959;49.418;8.728;2023-08-06T01:44:05;16.10;99.90
23562;DHT22;11959;49.418;8.728;2023-08-06T01:46:30;16.10;99.90
23562;DHT22;11959;49.418;8.728;2023-08-06T01:48:56;16.20;99.90
23562;DHT22;11959;49.418;8.728;2023-08-06T01:51:22;16.20;99.90
23562;DHT22;11959;49.418;8.728;2023-08-06T01:53:47;16.20;99.90
23562;DHT22;11959;49.418;8.728;2023-08-06T01:56:13;16.20;99.90
23562;DHT22;11959;49.418;8.728;2023-08-06T01:58:39;16.20;99.90
23562;DHT22;11959;49.418;8.728;2023-08-06T02:01:04;16.20;99.90
23562;DHT22;11959;49.418;8.728;2023-08-06T02:03:30;16.20;99.90
23562;DHT22;11959;49.418;8.728;2023-08-06T02:05:55;16.10;99.90
23562;DHT22;11959;49.418;8.728;2023-08-06T02:08:21;16.10;99.90
23562;DHT22;11959;49.418;8.728;2023-08-06T02:10:47;16.20;99.90
23562;DHT22;11959;49.418;8.728;2023-08-06T02:13:12;16.10;99.90
23562;DHT22;11959;49.418;8.728;2023-08-06T02:15:45;16.10;99.90
23562;DHT22;11959;49.418;8.728;2023-08-06T02:18:13;16.20;99.90
23562;DHT22;11959;49.418;8.728;2023-08-06T02:20:40;16.20;99.90
23562;DHT22;11959;49.418;8.728;2023-08-06T02:23:06;16.10;99.90
23562;DHT22;11959;49.418;8.728;2023-08-06T02:25:32;16.10;99.90
23562;DHT22;11959;49.418;8.728;2023-08-06T02:27:58;16.10;99.90
23562;DHT22;11959;49.418;8.728;2023-08-06T02:30:24;16.10;99.90
23562;DHT22;11959;49.418;8.728;2023-08-06T02:32:50;16.00;99.90
23562;DHT22;11959;49.418;8.728;2023-08-06T02:35:15;16.10;99.90
23562;DHT22;11959;49.418;8.728;2023-08-06T02:37:41;16.10;99.90
23562;DHT22;11959;49.418;8.728;2023-08-06T02:40:07;16.10;99.90
23562;DHT22;11959;49.418;8.728;2023-08-06T02:42:33;16.10;99.90
23562;DHT22;11959;49.418;8.728;2023-08-06T02:44:58;16.10;99.90
23562;DHT22;11959;49.418;8.728;2023-08-06T02:47:24;16.10;99.90
23562;DHT22;11959;49.418;8.728;2023-08-06T02:49:50;16.20;99.90
23562;DHT22;11959;49.418;8.728;2023-08-06T02:52:15;16.20;99.90
23562;DHT22;11959;49.418;8.728;2023-08-06T02:54:41;16.20;99.90
23562;DHT22;11959;49.418;8.728;2023-08-06T02:57:07;16.20;99.90
23562;DHT22;11959;49.418;8.728;2023-08-06T02:59:33;16.10;99.90
23562;DHT22;11959;49.418;8.728;2023-08-06T03:01:59;16.20;99.90
23562;DHT22;11959;49.418;8.728;2023-08-06T03:04:24;16.20;99.90
23562;DHT22;11959;49.418;8.728;2023-08-06T03:06:50;16.20;99.90
23562;DHT22;11959;49.418;8.728;2023-08-06T03:09:17;16.10;99.90
23562;DHT22;11959;49.418;8.728;2023-08-06T03:11:42;16.20;99.90
23562;DHT22;11959;49.418;8.728;2023-08-06T03:14:08;16.20;99.90
23562;DHT22;11959;49.418;8.728;2023-08-06T03:16:34;16.20;99.90
23562;DHT22;11959;49.418;8.728;2023-08-06T03:19:00;16.20;99.90
23562;DHT22;11959;49.418;8.728;2023-08-06T03:21:25;16.20;99.90
23562;DHT22;11959;49.418;8.728;2023-08-06T03:23:51;16.20;99.90
23562;DHT22;11959;49.418;8.728;2023-08-06T03:26:17;16.20;99.90
23562;DHT22;11959;49.418;8.728;2023-08-06T03:28:42;16.20;99.90
23562;DHT22;11959;49.418;8.728;2023-08-06T03:31:08;16.20;99.90
23562;DHT22;11959;49.418;8.728;2023-08-06T03:33:34;16.10;99.90
23562;DHT22;11959;49.418;8.728;2023-08-06T03:36:00;16.20;99.90
23562;DHT22;11959;49.418;8.728;2023-08-06T03:38:25;16.20;99.90
23562;DHT22;11959;49.418;8.728;2023-08-06T03:40:51;16.20;99.90
23562;DHT22;11959;49.418;8.728;2023-08-06T03:43:17;16.20;99.90
23562;DHT22;11959;49.418;8.728;2023-08-06T03:45:42;16.20;99.90
23562;DHT22;11959;49.418;8.728;2023-08-06T03:48:09;16.20;99.90
23562;DHT22;11959;49.418;8.728;2023-08-06T03:50:34;16.20;99.90
23562;DHT22;11959;49.418;8.728;2023-08-06T03:53:00;16.20;99.90
23562;DHT22;11959;49.418;8.728;2023-08-06T03:55:26;16.20;99.90
23562;DHT22;11959;49.418;8.728;2023-08-06T03:57:52;16.20;99.90
23562;DHT22;11959;49.418;8.728;2023-08-06T04:00:17;16.20;99.90
23562;DHT22;11959;49.418;8.728;2023-08-06T04:02:43;16.20;99.90
23562;DHT22;11959;49.418;8.728;2023-08-06T04:05:09;16.10;99.90
23562;DHT22;11959;49.418;8.728;2023-08-06T04:07:34;16.10;99.90
23562;DHT22;11959;49.418;8.728;2023-08-06T04:10:02;16.10;99.90
23562;DHT22;11959;49.418;8.728;2023-08-06T04:12:28;16.10;99.90
23562;DHT22;11959;49.418;8.728;2023-08-06T04:14:55;16.10;99.90
23562;DHT22;11959;49.418;8.728;2023-08-06T04:17:21;16.10;99.90
23562;DHT22;11959;49.418;8.728;2023-08-06T04:19:51;16.00;99.90
23562;DHT22;11959;49.418;8.728;2023-08-06T04:22:18;16.10;99.90
23562;DHT22;11959;49.418;8.728;2023-08-06T04:24:44;16.20;99.90
23562;DHT22;11959;49.418;8.728;2023-08-06T04:27:11;16.20;99.90
23562;DHT22;11959;49.418;8.728;2023-08-06T04:29:37;16.20;99.90
23562;DHT22;11959;49.418;8.728;2023-08-06T04:32:07;16.20;99.90
23562;DHT22;11959;49.418;8.728;2023-08-06T04:34:34;16.00;99.90
23562;DHT22;11959;49.418;8.728;2023-08-06T04:37:00;16.00;99.90
23562;DHT22;11959;49.418;8.728;2023-08-06T04:39:26;15.90;99.90
23562;DHT22;11959;49.418;8.728;2023-08-06T04:41:52;16.00;99.90
23562;DHT22;11959;49.418;8.728;2023-08-06T04:44:17;16.00;99.90
23562;DHT22;11959;49.418;8.728;2023-08-06T04:46:43;16.00;99.90
23562;DHT22;11959;49.418;8.728;2023-08-06T04:49:09;16.00;99.90
23562;DHT22;11959;49.418;8.728;2023-08-06T04:51:35;16.00;99.90
23562;DHT22;11959;49.418;8.728;2023-08-06T04:54:00;16.00;99.90
23562;DHT22;11959;49.418;8.728;2023-08-06T04:56:26;15.90;99.90
23562;DHT22;11959;49.418;8.728;2023-08-06T04:58:52;15.90;99.90
23562;DHT22;11959;49.418;8.728;2023-08-06T05:01:18;15.90;99.90
23562;DHT22;11959;49.418;8.728;2023-08-06T05:03:43;15.90;99.90
23562;DHT22;11959;49.418;8.728;2023-08-06T05:06:09;15.80;99.90
23562;DHT22;11959;49.418;8.728;2023-08-06T05:08:36;15.90;99.90
23562;DHT22;11959;49.418;8.728;2023-08-06T05:11:01;15.80;99.90
23562;DHT22;11959;49.418;8.728;2023-08-06T05:13:27;15.80;99.90
23562;DHT22;11959;49.418;8.728;2023-08-06T05:15:53;15.80;99.90
23562;DHT22;11959;49.418;8.728;2023-08-06T05:18:19;15.70;99.90
23562;DHT22;11959;49.418;8.728;2023-08-06T05:20:45;15.80;99.90
23562;DHT22;11959;49.418;8.728;2023-08-06T05:23:11;15.80;99.90
23562;DHT22;11959;49.418;8.728;2023-08-06T05:25:40;15.80;99.90
23562;DHT22;11959;49.418;8.728;2023-08-06T05:28:05;15.80;99.90
23562;DHT22;11959;49.418;8.728;2023-08-06T05:30:31;15.70;99.90
23562;DHT22;11959;49.418;8.728;2023-08-06T05:32:57;15.60;99.90
23562;DHT22;11959;49.418;8.728;2023-08-06T05:35:23;15.60;99.90
23562;DHT22;11959;49.418;8.728;2023-08-06T05:37:50;15.70;99.90
23562;DHT22;11959;49.418;8.728;2023-08-06T05:40:16;15.50;99.90
23562;DHT22;11959;49.418;8.728;2023-08-06T05:42:41;15.50;99.90
23562;DHT22;11959;49.418;8.728;2023-08-06T05:45:08;15.50;99.90
23562;DHT22;11959;49.418;8.728;2023-08-06T05:47:34;15.40;99.90
23562;DHT22;11959;49.418;8.728;2023-08-06T05:49:59;15.40;99.90
23562;DHT22;11959;49.418;8.728;2023-08-06T05:52:25;15.40;99.90
23562;DHT22;11959;49.418;8.728;2023-08-06T05:54:50;15.30;99.90
23562;DHT22;11959;49.418;8.728;2023-08-06T05:57:17;15.40;99.90
23562;DHT22;11959;49.418;8.728;2023-08-06T05:59:43;15.30;99.90
23562;DHT22;11959;49.418;8.728;2023-08-06T06:02:09;15.30;99.90
23562;DHT22;11959;49.418;8.728;2023-08-06T06:04:34;15.30;99.90
23562;DHT22;11959;49.418;8.728;2023-08-06T06:07:00;15.20;99.90
23562;DHT22;11959;49.418;8.728;2023-08-06T06:09:26;15.30;99.90
23562;DHT22;11959;49.418;8.728;2023-08-06T06:11:51;15.20;99.90
23562;DHT22;11959;49.418;8.728;2023-08-06T06:14:18;15.20;99.90
23562;DHT22;11959;49.418;8.728;2023-08-06T06:16:44;15.20;99.90
23562;DHT22;11959;49.418;8.728;2023-08-06T06:19:09;15.20;99.90
23562;DHT22;11959;49.418;8.728;2023-08-06T06:21:35;15.20;99.90
23562;DHT22;11959;49.418;8.728;2023-08-06T06:24:01;15.10;99.90
23562;DHT22;11959;49.418;8.728;2023-08-06T06:26:26;15.10;99.90
23562;DHT22;11959;49.418;8.728;2023-08-06T06:28:52;15.10;99.90
23562;DHT22;11959;49.418;8.728;2023-08-06T06:31:18;15.10;99.90
23562;DHT22;11959;49.418;8.728;2023-08-06T06:33:43;15.10;99.90
23562;DHT22;11959;49.418;8.728;2023-08-06T06:36:09;15.10;99.90
23562;DHT22;11959;49.418;8.728;2023-08-06T06:38:35;15.10;99.90
23562;DHT22;11959;49.418;8.728;2023-08-06T06:41:01;15.20;99.90
23562;DHT22;11959;49.418;8.728;2023-08-06T06:43:28;15.10;99.90
23562;DHT22;11959;49.418;8.728;2023-08-06T06:45:58;15.10;99.90
23562;DHT22;11959;49.418;8.728;2023-08-06T06:48:25;15.20;99.90
23562;DHT22;11959;49.418;8.728;2023-08-06T06:50:51;15.20;99.90
23562;DHT22;11959;49.418;8.728;2023-08-06T06:53:16;15.20;99.90
23562;DHT22;11959;49.418;8.728;2023-08-06T06:55:42;15.20;99.90
23562;DHT22;11959;49.418;8.728;2023-08-06T06:58:08;15.20;99.90
23562;DHT22;11959;49.418;8.728;2023-08-06T07:00:36;15.20;99.90
23562;DHT22;11959;49.418;8.728;2023-08-06T07:03:02;15.30;99.90
23562;DHT22;11959;49.418;8.728;2023-08-06T07:05:28;15.20;99.90
23562;DHT22;11959;49.418;8.728;2023-08-06T07:07:53;15.30;99.90
23562;DHT22;11959;49.418;8.728;2023-08-06T07:10:19;15.30;99.90
23562;DHT22;11959;49.418;8.728;2023-08-06T07:12:45;15.20;99.90
23562;DHT22;11959;49.418;8.728;2023-08-06T07:15:11;15.20;99.90
23562;DHT22;11959;49.418;8.728;2023-08-06T07:17:36;15.30;99.90
23562;DHT22;11959;49.418;8.728;2023-08-06T07:20:02;15.40;99.90
23562;DHT22;11959;49.418;8.728;2023-08-06T07:22:28;15.40;99.90
23562;DHT22;11959;49.418;8.728;2023-08-06T07:24:54;15.30;99.90
23562;DHT22;11959;49.418;8.728;2023-08-06T07:27:19;15.40;99.90
23562;DHT22;11959;49.418;8.728;2023-08-06T07:29:47;15.50;99.90
23562;DHT22;11959;49.418;8.728;2023-08-06T07:32:14;15.60;99.90
23562;DHT22;11959;49.418;8.728;2023-08-06T07:34:40;15.50;99.90
23562;DHT22;11959;49.418;8.728;2023-08-06T07:37:05;15.50;99.90
23562;DHT22;11959;49.418;8.728;2023-08-06T07:39:31;15.50;99.90
23562;DHT22;11959;49.418;8.728;2023-08-06T07:41:57;15.50;99.90
23562;DHT22;11959;49.418;8.728;2023-08-06T07:44:22;15.50;99.90
23562;DHT22;11959;49.418;8.728;2023-08-06T07:46:49;15.50;99.90
23562;DHT22;11959;49.418;8.728;2023-08-06T07:49:15;15.60;99.90
23562;DHT22;11959;49.418;8.728;2023-08-06T07:51:40;15.60;99.90
23562;DHT22;11959;49.418;8.728;2023-08-06T07:54:06;15.70;99.90
23562;DHT22;11959;49.418;8.728;2023-08-06T07:56:32;15.70;99.90
23562;DHT22;11959;49.418;8.728;2023-08-06T07:58:57;15.70;99.90
23562;DHT22;11959;49.418;8.728;2023-08-06T08:01:23;15.70;99.90
23562;DHT22;11959;49.418;8.728;2023-08-06T08:03:49;15.70;99.90
23562;DHT22;11959;49.418;8.728;2023-08-06T08:06:14;15.60;99.90
23562;DHT22;11959;49.418;8.728;2023-08-06T08:08:40;15.60;99.90
23562;DHT22;11959;49.418;8.728;2023-08-06T08:11:07;15.50;99.90
23562;DHT22;11959;49.418;8.728;2023-08-06T08:13:34;15.60;99.90
23562;DHT22;11959;49.418;8.728;2023-08-06T08:16:01;15.50;99.90
23562;DHT22;11959;49.418;8.728;2023-08-06T08:18:28;15.60;99.90
23562;DHT22;11959;49.418;8.728;2023-08-06T08:20:55;15.60;99.90
23562;DHT22;11959;49.418;8.728;2023-08-06T08:23:20;15.70;99.90
23562;DHT22;11959;49.418;8.728;2023-08-06T08:25:46;15.70;99.90
23562;DHT22;11959;49.418;8.728;2023-08-06T08:28:12;15.60;99.90
23562;DHT22;11959;49.418;8.728;2023-08-06T08:30:37;15.70;99.90
23562;DHT22;11959;49.418;8.728;2023-08-06T08:33:03;15.70;99.90
23562;DHT22;11959;49.418;8.728;2023-08-06T08:35:28;15.70;99.90
23562;DHT22;11959;49.418;8.728;2023-08-06T08:37:54;15.70;99.90
23562;DHT22;11959;49.418;8.728;2023-08-06T08:40:21;15.80;99.90
23562;DHT22;11959;49.418;8.728;2023-08-06T08:42:48;15.80;99.90
23562;DHT22;11959;49.418;8.728;2023-08-06T08:45:15;15.80;99.90
23562;DHT22;11959;49.418;8.728;2023-08-06T08:47:41;15.90;99.90
23562;DHT22;11959;49.418;8.728;2023-08-06T08:50:09;15.90;99.90
23562;DHT22;11959;49.418;8.728;2023-08-06T08:52:38;16.00;99.90
23562;DHT22;11959;49.418;8.728;2023-08-06T08:55:08;16.00;99.90
23562;DHT22;11959;49.418;8.728;2023-08-06T08:57:34;16.00;99.90
23562;DHT22;11959;49.418;8.728;2023-08-06T09:00:00;16.10;99.90
23562;DHT22;11959;49.418;8.728;2023-08-06T09:02:28;16.00;99.90
23562;DHT22;11959;49.418;8.728;2023-08-06T09:05:01;16.10;99.90
23562;DHT22;11959;49.418;8.728;2023-08-06T09:07:32;16.20;99.90
23562;DHT22;11959;49.418;8.728;2023-08-06T09:10:02;16.20;99.90
23562;DHT22;11959;49.418;8.728;2023-08-06T09:12:31;16.20;99.90
23562;DHT22;11959;49.418;8.728;2023-08-06T09:14:57;16.30;99.90
23562;DHT22;11959;49.418;8.728;2023-08-06T09:17:23;16.30;99.90
23562;DHT22;11959;49.418;8.728;2023-08-06T09:19:49;16.30;99.90
23562;DHT22;11959;49.418;8.728;2023-08-06T09:22:15;16.30;99.90
23562;DHT22;11959;49.418;8.728;2023-08-06T09:24:41;16.40;99.90
23562;DHT22;11959;49.418;8.728;2023-08-06T09:27:12;16.40;99.90
23562;DHT22;11959;49.418;8.728;2023-08-06T09:29:44;16.40;99.90
23562;DHT22;11959;49.418;8.728;2023-08-06T09:32:13;16.30;99.90
23562;DHT22;11959;49.418;8.728;2023-08-06T09:34:41;16.30;99.90
23562;DHT22;11959;49.418;8.728;2023-08-06T09:37:09;16.30;99.90
23562;DHT22;11959;49.418;8.728;2023-08-06T09:39:36;16.30;99.90
23562;DHT22;11959;49.418;8.728;2023-08-06T09:42:02;16.60;99.90
23562;DHT22;11959;49.418;8.728;2023-08-06T09:44:31;16.90;99.90
23562;DHT22;11959;49.418;8.728;2023-08-06T09:46:59;17.20;99.90
23562;DHT22;11959;49.418;8.728;2023-08-06T09:51:59;17.30;99.90
23562;DHT22;11959;49.418;8.728;2023-08-06T09:54:26;17.20;99.90
23562;DHT22;11959;49.418;8.728;2023-08-06T09:56:56;17.20;99.90
23562;DHT22;11959;49.418;8.728;2023-08-06T09:59:25;17.20;99.90
23562;DHT22;11959;49.418;8.728;2023-08-06T10:01:51;17.10;99.90
23562;DHT22;11959;49.418;8.728;2023-08-06T10:04:17;17.10;99.90
23562;DHT22;11959;49.418;8.728;2023-08-06T10:06:46;16.90;99.90
23562;DHT22;11959;49.418;8.728;2023-08-06T10:09:13;16.70;99.90
23562;DHT22;11959;49.418;8.728;2023-08-06T10:11:39;16.60;99.90
23562;DHT22;11959;49.418;8.728;2023-08-06T10:14:18;16.60;99.90
23562;DHT22;11959;49.418;8.728;2023-08-06T10:16:45;16.60;99.90
23562;DHT22;11959;49.418;8.728;2023-08-06T10:19:12;16.50;99.90
23562;DHT22;11959;49.418;8.728;2023-08-06T10:21:39;16.40;99.90
23562;DHT22;11959;49.418;8.728;2023-08-06T10:24:08;16.40;99.90
23562;DHT22;11959;49.418;8.728;2023-08-06T10:26:36;16.20;99.90
23562;DHT22;11959;49.418;8.728;2023-08-06T10:29:35;16.30;99.90
23562;DHT22;11959;49.418;8.728;2023-08-06T10:32:01;16.30;99.90
23562;DHT22;11959;49.418;8.728;2023-08-06T10:34:54;16.30;99.90
23562;DHT22;11959;49.418;8.728;2023-08-06T10:37:21;16.20;99.90
23562;DHT22;11959;49.418;8.728;2023-08-06T10:39:53;16.20;99.90
23562;DHT22;11959;49.418;8.728;2023-08-06T10:42:26;16.00;99.90
23562;DHT22;11959;49.418;8.728;2023-08-06T10:45:16;16.00;99.90
23562;DHT22;11959;49.418;8.728;2023-08-06T10:47:43;15.90;99.90
23562;DHT22;11959;49.418;8.728;2023-08-06T10:50:12;16.00;99.90
23562;DHT22;11959;49.418;8.728;2023-08-06T10:52:39;16.00;99.90
23562;DHT22;11959;49.418;8.728;2023-08-06T10:55:05;16.00;99.90
23562;DHT22;11959;49.418;8.728;2023-08-06T10:57:31;16.00;99.90
23562;DHT22;11959;49.418;8.728;2023-08-06T10:59:57;15.90;99.90
23562;DHT22;11959;49.418;8.728;2023-08-06T11:02:23;15.90;99.90
23562;DHT22;11959;49.418;8.728;2023-08-06T11:04:49;15.80;99.90
23562;DHT22;11959;49.418;8.728;2023-08-06T11:07:14;15.70;99.90
23562;DHT22;11959;49.418;8.728;2023-08-06T11:09:40;15.60;99.90
23562;DHT22;11959;49.418;8.728;2023-08-06T11:12:12;15.50;99.90
23562;DHT22;11959;49.418;8.728;2023-08-06T11:14:50;15.60;99.90
23562;DHT22;11959;49.418;8.728;2023-08-06T11:17:15;15.50;99.90
23562;DHT22;11959;49.418;8.728;2023-08-06T11:19:41;15.50;99.90
23562;DHT22;11959;49.418;8.728;2023-08-06T11:22:07;15.50;99.90
23562;DHT22;11959;49.418;8.728;2023-08-06T11:24:32;15.50;99.90
23562;DHT22;11959;49.418;8.728;2023-08-06T11:26:58;15.60;99.90
23562;DHT22;11959;49.418;8.728;2023-08-06T11:29:25;15.60;99.90
23562;DHT22;11959;49.418;8.728;2023-08-06T11:31:52;15.50;99.90
23562;DHT22;11959;49.418;8.728;2023-08-06T11:34:18;15.50;99.90
23562;DHT22;11959;49.418;8.728;2023-08-06T11:36:44;15.50;99.90
23562;DHT22;11959;49.418;8.728;2023-08-06T11:39:09;15.50;99.90
23562;DHT22;11959;49.418;8.728;2023-08-06T11:41:38;15.50;99.90
23562;DHT22;11959;49.418;8.728;2023-08-06T11:44:05;15.50;99.90
23562;DHT22;11959;49.418;8.728;2023-08-06T11:46:50;15.50;99.90
23562;DHT22;11959;49.418;8.728;2023-08-06T11:49:17;15.50;99.90
23562;DHT22;11959;49.418;8.728;2023-08-06T11:51:47;15.50;99.90
23562;DHT22;11959;49.418;8.728;2023-08-06T11:54:13;15.40;99.90
23562;DHT22;11959;49.418;8.728;2023-08-06T11:56:38;15.50;99.90
23562;DHT22;11959;49.418;8.728;2023-08-06T11:59:04;15.50;99.90
23562;DHT22;11959;49.418;8.728;2023-08-06T12:01:31;15.50;99.90
23562;DHT22;11959;49.418;8.728;2023-08-06T12:04:00;15.50;99.90
23562;DHT22;11959;49.418;8.728;2023-08-06T12:06:28;15.50;99.90
23562;DHT22;11959;49.418;8.728;2023-08-06T12:08:54;15.50;99.90
23562;DHT22;11959;49.418;8.728;2023-08-06T12:11:23;15.50;99.90
23562;DHT22;11959;49.418;8.728;2023-08-06T12:13:54;15.40;99.90
23562;DHT22;11959;49.418;8.728;2023-08-06T12:16:19;15.50;99.90
23562;DHT22;11959;49.418;8.728;2023-08-06T12:18:47;15.50;99.90
23562;DHT22;11959;49.418;8.728;2023-08-06T12:21:14;15.60;99.90
23562;DHT22;11959;49.418;8.728;2023-08-06T12:23:39;15.60;99.90
23562;DHT22;11959;49.418;8.728;2023-08-06T12:26:05;15.60;99.90
23562;DHT22;11959;49.418;8.728;2023-08-06T12:28:30;15.60;99.90
23562;DHT22;11959;49.418;8.728;2023-08-06T12:30:56;15.60;99.90
23562;DHT22;11959;49.418;8.728;2023-08-06T12:33:22;15.60;99.90
23562;DHT22;11959;49.418;8.728;2023-08-06T12:35:47;15.60;99.90
23562;DHT22;11959;49.418;8.728;2023-08-06T12:38:13;15.70;99.90
23562;DHT22;11959;49.418;8.728;2023-08-06T12:40:39;15.70;99.90
23562;DHT22;11959;49.418;8.728;2023-08-06T12:43:05;15.70;99.90
23562;DHT22;11959;49.418;8.728;2023-08-06T12:45:30;15.70;99.90
23562;DHT22;11959;49.418;8.728;2023-08-06T12:47:56;15.70;99.90
23562;DHT22;11959;49.418;8.728;2023-08-06T12:50:22;15.70;99.90
23562;DHT22;11959;49.418;8.728;2023-08-06T12:52:47;15.80;99.90
23562;DHT22;11959;49.418;8.728;2023-08-06T12:55:13;15.80;99.90
23562;DHT22;11959;49.418;8.728;2023-08-06T12:57:38;15.80;99.90
23562;DHT22;11959;49.418;8.728;2023-08-06T13:00:05;15.80;99.90
23562;DHT22;11959;49.418;8.728;2023-08-06T13:02:30;15.90;99.90
23562;DHT22;11959;49.418;8.728;2023-08-06T13:04:56;15.90;99.90
23562;DHT22;11959;49.418;8.728;2023-08-06T13:07:22;15.90;99.90
23562;DHT22;11959;49.418;8.728;2023-08-06T13:09:48;15.90;99.90
23562;DHT22;11959;49.418;8.728;2023-08-06T13:12:13;15.90;99.90
23562;DHT22;11959;49.418;8.728;2023-08-06T13:14:39;15.90;99.90
23562;DHT22;11959;49.418;8.728;2023-08-06T13:17:04;15.90;99.90
23562;DHT22;11959;49.418;8.728;2023-08-06T13:19:32;15.90;99.90
23562;DHT22;11959;49.418;8.728;2023-08-06T13:22:00;15.90;99.90
23562;DHT22;11959;49.418;8.728;2023-08-06T13:24:28;15.90;99.90
23562;DHT22;11959;49.418;8.728;2023-08-06T13:26:53;15.90;99.90
23562;DHT22;11959;49.418;8.728;2023-08-06T13:29:20;15.90;99.90
23562;DHT22;11959;49.418;8.728;2023-08-06T13:31:45;15.80;99.90
23562;DHT22;11959;49.418;8.728;2023-08-06T13:34:11;15.90;99.90
23562;DHT22;11959;49.418;8.728;2023-08-06T13:36:37;15.90;99.90
23562;DHT22;11959;49.418;8.728;2023-08-06T13:39:02;16.00;99.90
23562;DHT22;11959;49.418;8.728;2023-08-06T13:41:30;15.90;99.90
23562;DHT22;11959;49.418;8.728;2023-08-06T13:43:55;15.90;99.90
23562;DHT22;11959;49.418;8.728;2023-08-06T13:46:21;15.90;99.90
23562;DHT22;11959;49.418;8.728;2023-08-06T13:48:47;15.80;99.90
23562;DHT22;11959;49.418;8.728;2023-08-06T13:51:16;15.80;99.90
23562;DHT22;11959;49.418;8.728;2023-08-06T13:53:42;15.80;99.90
23562;DHT22;11959;49.418;8.728;2023-08-06T13:56:09;15.80;99.90
23562;DHT22;11959;49.418;8.728;2023-08-06T13:58:35;15.90;99.90
23562;DHT22;11959;49.418;8.728;2023-08-06T14:01:01;15.90;99.90
23562;DHT22;11959;49.418;8.728;2023-08-06T14:03:27;15.80;99.90
23562;DHT22;11959;49.418;8.728;2023-08-06T14:05:52;15.80;99.90
23562;DHT22;11959;49.418;8.728;2023-08-06T14:08:20;15.80;99.90
23562;DHT22;11959;49.418;8.728;2023-08-06T14:10:46;15.70;99.90
23562;DHT22;11959;49.418;8.728;2023-08-06T14:13:12;15.70;99.90
23562;DHT22;11959;49.418;8.728;2023-08-06T14:15:38;15.70;99.90
23562;DHT22;11959;49.418;8.728;2023-08-06T14:18:06;15.70;99.90
23562;DHT22;11959;49.418;8.728;2023-08-06T14:20:34;15.70;99.90
23562;DHT22;11959;49.418;8.728;2023-08-06T14:22:59;15.70;99.90
23562;DHT22;11959;49.418;8.728;2023-08-06T14:25:25;15.70;99.90
23562;DHT22;11959;49.418;8.728;2023-08-06T14:27:52;15.70;99.90
23562;DHT22;11959;49.418;8.728;2023-08-06T14:30:19;15.70;99.90
23562;DHT22;11959;49.418;8.728;2023-08-06T14:32:45;15.70;99.90
23562;DHT22;11959;49.418;8.728;2023-08-06T14:35:11;15.70;99.90
23562;DHT22;11959;49.418;8.728;2023-08-06T14:37:36;15.70;99.90
23562;DHT22;11959;49.418;8.728;2023-08-06T14:40:02;15.70;99.90
23562;DHT22;11959;49.418;8.728;2023-08-06T14:42:28;15.70;99.90
23562;DHT22;11959;49.418;8.728;2023-08-06T14:44:54;15.70;99.90
23562;DHT22;11959;49.418;8.728;2023-08-06T14:47:19;15.70;99.90
23562;DHT22;11959;49.418;8.728;2023-08-06T14:49:45;15.60;99.90
23562;DHT22;11959;49.418;8.728;2023-08-06T14:52:11;15.60;99.90
23562;DHT22;11959;49.418;8.728;2023-08-06T14:54:37;15.60;99.90
23562;DHT22;11959;49.418;8.728;2023-08-06T14:57:03;15.70;99.90
23562;DHT22;11959;49.418;8.728;2023-08-06T14:59:29;15.60;99.90
23562;DHT22;11959;49.418;8.728;2023-08-06T15:01:55;15.60;99.90
23562;DHT22;11959;49.418;8.728;2023-08-06T15:04:21;15.70;99.90
23562;DHT22;11959;49.418;8.728;2023-08-06T15:06:48;15.70;99.90
23562;DHT22;11959;49.418;8.728;2023-08-06T15:09:13;15.70;99.90
23562;DHT22;11959;49.418;8.728;2023-08-06T15:11:39;15.70;99.90
23562;DHT22;11959;49.418;8.728;2023-08-06T15:14:05;15.70;99.90
23562;DHT22;11959;49.418;8.728;2023-08-06T15:16:35;15.70;99.90
23562;DHT22;11959;49.418;8.728;2023-08-06T15:19:01;15.70;99.90
23562;DHT22;11959;49.418;8.728;2023-08-06T15:21:27;15.80;99.90
23562;DHT22;11959;49.418;8.728;2023-08-06T15:23:53;15.70;99.90
23562;DHT22;11959;49.418;8.728;2023-08-06T15:26:19;15.80;99.90
23562;DHT22;11959;49.418;8.728;2023-08-06T15:28:45;15.80;99.90